sensor_id;sensor_type;location;lat;lon;timestamp;P1;durP1;ratioP1;P2;durP2;ratioP2
18905;SDS011;9585;51.018;4.282;2022-10-13T00:01:37;8.35;;;6.38;;
18905;SDS011;9585;51.018;4.282;2022-10-13T00:04:07;7.80;;;5.68;;
18905;SDS011;9585;51.018;4.282;2022-10-13T00:06:34;8.65;;;6.07;;
18905;SDS011;9585;51.018;4.282;2022-10-13T00:09:01;8.70;;;6.20;;
18905;SDS011;9585;51.018;4.282;2022-10-13T00:11:30;7.90;;;6.32;;
18905;SDS011;9585;51.018;4.282;2022-10-13T00:13:58;8.82;;;5.93;;
18905;SDS011;9585;51.018;4.282;2022-10-13T00:16:28;8.05;;;6.00;;
18905;SDS011;9585;51.018;4.282;2022-10-13T00:18:56;9.02;;;6.38;;
18905;SDS011;9585;51.018;4.282;2022-10-13T00:21:25;8.48;;;5.97;;
18905;SDS011;9585;51.018;4.282;2022-10-13T00:23:53;7.50;;;5.47;;
18905;SDS011;9585;51.018;4.282;2022-10-13T00:26:22;7.78;;;5.25;;
18905;SDS011;9585;51.018;4.282;2022-10-13T00:28:50;9.20;;;6.20;;
18905;SDS011;9585;51.018;4.282;2022-10-13T00:31:19;7.20;;;4.93;;
18905;SDS011;9585;51.018;4.282;2022-10-13T00:33:48;6.80;;;5.05;;
18905;SDS011;9585;51.018;4.282;2022-10-13T00:36:16;9.93;;;6.40;;
18905;SDS011;9585;51.018;4.282;2022-10-13T00:38:45;11.07;;;6.68;;
18905;SDS011;9585;51.018;4.282;2022-10-13T00:41:13;8.05;;;5.70;;
18905;SDS011;9585;51.018;4.282;2022-10-13T00:43:47;9.15;;;6.45;;
18905;SDS011;9585;51.018;4.282;2022-10-13T00:46:18;7.45;;;6.00;;
18905;SDS011;9585;51.018;4.282;2022-10-13T00:48:45;8.70;;;6.25;;
18905;SDS011;9585;51.018;4.282;2022-10-13T00:51:15;8.23;;;6.03;;
18905;SDS011;9585;51.018;4.282;2022-10-13T00:53:50;6.70;;;5.18;;
18905;SDS011;9585;51.018;4.282;2022-10-13T00:56:23;10.05;;;6.57;;
18905;SDS011;9585;51.018;4.282;2022-10-13T00:58:52;11.02;;;6.43;;
18905;SDS011;9585;51.018;4.282;2022-10-13T01:01:21;9.00;;;6.40;;
18905;SDS011;9585;51.018;4.282;2022-10-13T01:03:48;9.57;;;6.38;;
18905;SDS011;9585;51.018;4.282;2022-10-13T01:06:16;12.70;;;7.40;;
18905;SDS011;9585;51.018;4.282;2022-10-13T01:08:49;10.90;;;6.88;;
18905;SDS011;9585;51.018;4.282;2022-10-13T01:11:22;9.93;;;7.00;;
18905;SDS011;9585;51.018;4.282;2022-10-13T01:14:02;8.48;;;6.72;;
18905;SDS011;9585;51.018;4.282;2022-10-13T01:16:39;10.45;;;7.25;;
18905;SDS011;9585;51.018;4.282;2022-10-13T01:19:19;9.30;;;6.80;;
18905;SDS011;9585;51.018;4.282;2022-10-13T01:22:02;9.57;;;6.53;;
18905;SDS011;9585;51.018;4.282;2022-10-13T01:24:41;11.55;;;6.68;;
18905;SDS011;9585;51.018;4.282;2022-10-13T01:27:18;7.57;;;6.20;;
18905;SDS011;9585;51.018;4.282;2022-10-13T01:30:11;9.80;;;7.10;;
18905;SDS011;9585;51.018;4.282;2022-10-13T01:32:50;11.63;;;6.70;;
18905;SDS011;9585;51.018;4.282;2022-10-13T01:35:32;9.30;;;6.72;;
18905;SDS011;9585;51.018;4.282;2022-10-13T01:38:11;10.73;;;7.50;;
18905;SDS011;9585;51.018;4.282;2022-10-13T01:40:48;8.60;;;6.88;;
18905;SDS011;9585;51.018;4.282;2022-10-13T01:43:23;9.13;;;7.13;;
18905;SDS011;9585;51.018;4.282;2022-10-13T01:45:57;10.50;;;7.63;;
18905;SDS011;9585;51.018;4.282;2022-10-13T01:48:28;11.70;;;7.50;;
18905;SDS011;9585;51.018;4.282;2022-10-13T01:50:56;9.60;;;7.10;;
18905;SDS011;9585;51.018;4.282;2022-10-13T01:53:24;14.40;;;7.95;;
18905;SDS011;9585;51.018;4.282;2022-10-13T01:55:54;12.00;;;7.25;;
18905;SDS011;9585;51.018;4.282;2022-10-13T01:58:24;9.15;;;6.78;;
18905;SDS011;9585;51.018;4.282;2022-10-13T02:00:59;12.23;;;7.70;;
18905;SDS011;9585;51.018;4.282;2022-10-13T02:03:36;11.80;;;7.70;;
18905;SDS011;9585;51.018;4.282;2022-10-13T02:06:12;12.50;;;8.02;;
18905;SDS011;9585;51.018;4.282;2022-10-13T02:08:49;10.85;;;8.27;;
18905;SDS011;9585;51.018;4.282;2022-10-13T02:11:23;10.32;;;8.02;;
18905;SDS011;9585;51.018;4.282;2022-10-13T02:13:56;13.80;;;8.13;;
18905;SDS011;9585;51.018;4.282;2022-10-13T02:16:29;11.27;;;7.85;;
18905;SDS011;9585;51.018;4.282;2022-10-13T02:19:00;12.70;;;8.07;;
18905;SDS011;9585;51.018;4.282;2022-10-13T02:21:29;8.85;;;7.10;;
18905;SDS011;9585;51.018;4.282;2022-10-13T02:23:57;12.20;;;8.10;;
18905;SDS011;9585;51.018;4.282;2022-10-13T02:26:35;11.40;;;7.40;;
18905;SDS011;9585;51.018;4.282;2022-10-13T02:29:06;8.57;;;7.13;;
18905;SDS011;9585;51.018;4.282;2022-10-13T02:31:36;12.75;;;8.02;;
18905;SDS011;9585;51.018;4.282;2022-10-13T02:34:05;9.52;;;7.78;;
18905;SDS011;9585;51.018;4.282;2022-10-13T02:36:33;11.48;;;8.18;;
18905;SDS011;9585;51.018;4.282;2022-10-13T02:39:02;11.27;;;7.47;;
18905;SDS011;9585;51.018;4.282;2022-10-13T02:41:29;12.18;;;8.13;;
18905;SDS011;9585;51.018;4.282;2022-10-13T02:43:57;10.70;;;7.95;;
18905;SDS011;9585;51.018;4.282;2022-10-13T02:46:24;11.52;;;7.93;;
18905;SDS011;9585;51.018;4.282;2022-10-13T02:48:53;11.93;;;8.35;;
18905;SDS011;9585;51.018;4.282;2022-10-13T02:51:21;10.30;;;7.40;;
18905;SDS011;9585;51.018;4.282;2022-10-13T02:53:48;10.27;;;7.70;;
18905;SDS011;9585;51.018;4.282;2022-10-13T02:56:18;11.23;;;8.68;;
18905;SDS011;9585;51.018;4.282;2022-10-13T02:58:45;12.25;;;8.18;;
18905;SDS011;9585;51.018;4.282;2022-10-13T03:01:13;13.57;;;8.70;;
18905;SDS011;9585;51.018;4.282;2022-10-13T03:03:40;12.20;;;8.57;;
18905;SDS011;9585;51.018;4.282;2022-10-13T03:06:09;11.07;;;7.25;;
18905;SDS011;9585;51.018;4.282;2022-10-13T03:08:37;11.57;;;8.07;;
18905;SDS011;9585;51.018;4.282;2022-10-13T03:11:04;13.15;;;8.82;;
18905;SDS011;9585;51.018;4.282;2022-10-13T03:13:31;11.88;;;8.02;;
18905;SDS011;9585;51.018;4.282;2022-10-13T03:15:59;12.32;;;8.55;;
18905;SDS011;9585;51.018;4.282;2022-10-13T03:18:28;11.20;;;8.05;;
18905;SDS011;9585;51.018;4.282;2022-10-13T03:20:56;12.65;;;9.00;;
18905;SDS011;9585;51.018;4.282;2022-10-13T03:23:26;14.02;;;8.80;;
18905;SDS011;9585;51.018;4.282;2022-10-13T03:25:54;11.95;;;8.98;;
18905;SDS011;9585;51.018;4.282;2022-10-13T03:28:21;13.43;;;8.95;;
18905;SDS011;9585;51.018;4.282;2022-10-13T03:30:49;16.35;;;9.85;;
18905;SDS011;9585;51.018;4.282;2022-10-13T03:33:25;15.63;;;10.30;;
18905;SDS011;9585;51.018;4.282;2022-10-13T03:35:52;16.17;;;10.18;;
18905;SDS011;9585;51.018;4.282;2022-10-13T03:38:20;18.23;;;10.68;;
18905;SDS011;9585;51.018;4.282;2022-10-13T03:40:48;16.23;;;10.50;;
18905;SDS011;9585;51.018;4.282;2022-10-13T03:43:16;14.32;;;9.38;;
18905;SDS011;9585;51.018;4.282;2022-10-13T03:45:43;15.20;;;9.63;;
18905;SDS011;9585;51.018;4.282;2022-10-13T03:48:20;12.23;;;8.55;;
18905;SDS011;9585;51.018;4.282;2022-10-13T03:50:48;15.70;;;10.23;;
18905;SDS011;9585;51.018;4.282;2022-10-13T03:53:18;15.20;;;10.10;;
18905;SDS011;9585;51.018;4.282;2022-10-13T03:55:51;11.98;;;9.75;;
18905;SDS011;9585;51.018;4.282;2022-10-13T03:58:19;14.50;;;10.00;;
18905;SDS011;9585;51.018;4.282;2022-10-13T04:00:48;12.35;;;8.98;;
18905;SDS011;9585;51.018;4.282;2022-10-13T04:03:16;12.93;;;9.48;;
18905;SDS011;9585;51.018;4.282;2022-10-13T04:05:43;12.57;;;9.45;;
18905;SDS011;9585;51.018;4.282;2022-10-13T04:08:11;17.17;;;10.70;;
18905;SDS011;9585;51.018;4.282;2022-10-13T04:10:39;14.65;;;10.25;;
18905;SDS011;9585;51.018;4.282;2022-10-13T04:13:09;13.95;;;9.38;;
18905;SDS011;9585;51.018;4.282;2022-10-13T04:15:36;16.35;;;10.88;;
18905;SDS011;9585;51.018;4.282;2022-10-13T04:18:05;15.63;;;11.10;;
18905;SDS011;9585;51.018;4.282;2022-10-13T04:20:34;14.70;;;10.40;;
18905;SDS011;9585;51.018;4.282;2022-10-13T04:23:02;16.30;;;11.57;;
18905;SDS011;9585;51.018;4.282;2022-10-13T04:25:29;14.85;;;10.15;;
18905;SDS011;9585;51.018;4.282;2022-10-13T04:27:59;14.27;;;9.45;;
18905;SDS011;9585;51.018;4.282;2022-10-13T04:30:28;18.45;;;11.35;;
18905;SDS011;9585;51.018;4.282;2022-10-13T04:32:55;16.38;;;11.30;;
18905;SDS011;9585;51.018;4.282;2022-10-13T04:35:22;18.42;;;11.93;;
18905;SDS011;9585;51.018;4.282;2022-10-13T04:37:50;17.45;;;11.57;;
18905;SDS011;9585;51.018;4.282;2022-10-13T04:40:17;17.42;;;11.60;;
18905;SDS011;9585;51.018;4.282;2022-10-13T04:42:47;17.77;;;11.98;;
18905;SDS011;9585;51.018;4.282;2022-10-13T04:45:15;18.75;;;12.35;;
18905;SDS011;9585;51.018;4.282;2022-10-13T04:47:44;17.45;;;12.27;;
18905;SDS011;9585;51.018;4.282;2022-10-13T04:50:12;18.15;;;11.40;;
18905;SDS011;9585;51.018;4.282;2022-10-13T04:52:39;20.95;;;12.55;;
18905;SDS011;9585;51.018;4.282;2022-10-13T04:55:08;15.32;;;11.63;;
18905;SDS011;9585;51.018;4.282;2022-10-13T04:57:38;14.85;;;11.55;;
18905;SDS011;9585;51.018;4.282;2022-10-13T05:00:06;13.73;;;10.93;;
18905;SDS011;9585;51.018;4.282;2022-10-13T05:02:37;17.98;;;12.10;;
18905;SDS011;9585;51.018;4.282;2022-10-13T05:05:07;17.52;;;11.57;;
18905;SDS011;9585;51.018;4.282;2022-10-13T05:07:39;18.25;;;11.65;;
18905;SDS011;9585;51.018;4.282;2022-10-13T05:10:07;18.75;;;12.55;;
18905;SDS011;9585;51.018;4.282;2022-10-13T05:12:42;18.60;;;12.30;;
18905;SDS011;9585;51.018;4.282;2022-10-13T05:15:09;19.10;;;11.93;;
18905;SDS011;9585;51.018;4.282;2022-10-13T05:17:40;16.88;;;11.30;;
18905;SDS011;9585;51.018;4.282;2022-10-13T05:20:09;15.50;;;11.23;;
18905;SDS011;9585;51.018;4.282;2022-10-13T05:22:37;20.13;;;12.02;;
18905;SDS011;9585;51.018;4.282;2022-10-13T05:25:05;16.42;;;11.25;;
18905;SDS011;9585;51.018;4.282;2022-10-13T05:27:32;15.52;;;11.27;;
18905;SDS011;9585;51.018;4.282;2022-10-13T05:30:00;18.05;;;11.48;;
18905;SDS011;9585;51.018;4.282;2022-10-13T05:32:27;16.98;;;11.25;;
18905;SDS011;9585;51.018;4.282;2022-10-13T05:34:55;14.48;;;10.20;;
18905;SDS011;9585;51.018;4.282;2022-10-13T05:37:24;17.67;;;11.13;;
18905;SDS011;9585;51.018;4.282;2022-10-13T05:39:51;16.13;;;10.73;;
18905;SDS011;9585;51.018;4.282;2022-10-13T05:42:20;16.08;;;11.18;;
18905;SDS011;9585;51.018;4.282;2022-10-13T05:44:47;16.63;;;11.20;;
18905;SDS011;9585;51.018;4.282;2022-10-13T05:47:18;19.75;;;11.65;;
18905;SDS011;9585;51.018;4.282;2022-10-13T05:49:47;18.67;;;11.38;;
18905;SDS011;9585;51.018;4.282;2022-10-13T05:52:14;16.45;;;10.18;;
18905;SDS011;9585;51.018;4.282;2022-10-13T05:54:49;15.00;;;11.00;;
18905;SDS011;9585;51.018;4.282;2022-10-13T05:57:20;15.48;;;11.02;;
18905;SDS011;9585;51.018;4.282;2022-10-13T05:59:52;13.32;;;9.93;;
18905;SDS011;9585;51.018;4.282;2022-10-13T06:02:24;14.43;;;10.20;;
18905;SDS011;9585;51.018;4.282;2022-10-13T06:04:59;12.82;;;9.95;;
18905;SDS011;9585;51.018;4.282;2022-10-13T06:07:32;16.17;;;11.07;;
18905;SDS011;9585;51.018;4.282;2022-10-13T06:10:01;16.10;;;10.75;;
18905;SDS011;9585;51.018;4.282;2022-10-13T06:12:29;16.38;;;10.38;;
18905;SDS011;9585;51.018;4.282;2022-10-13T06:14:56;17.30;;;11.07;;
18905;SDS011;9585;51.018;4.282;2022-10-13T06:17:24;15.07;;;11.35;;
18905;SDS011;9585;51.018;4.282;2022-10-13T06:19:51;17.13;;;10.95;;
18905;SDS011;9585;51.018;4.282;2022-10-13T06:22:19;16.77;;;10.38;;
18905;SDS011;9585;51.018;4.282;2022-10-13T06:24:47;16.42;;;11.23;;
18905;SDS011;9585;51.018;4.282;2022-10-13T06:27:15;15.80;;;10.68;;
18905;SDS011;9585;51.018;4.282;2022-10-13T06:29:43;15.35;;;10.35;;
18905;SDS011;9585;51.018;4.282;2022-10-13T06:32:12;14.48;;;10.45;;
18905;SDS011;9585;51.018;4.282;2022-10-13T06:34:39;16.35;;;10.75;;
18905;SDS011;9585;51.018;4.282;2022-10-13T06:37:07;15.20;;;10.45;;
18905;SDS011;9585;51.018;4.282;2022-10-13T06:39:34;13.40;;;9.93;;
18905;SDS011;9585;51.018;4.282;2022-10-13T06:42:02;16.00;;;10.15;;
18905;SDS011;9585;51.018;4.282;2022-10-13T06:44:31;13.20;;;9.70;;
18905;SDS011;9585;51.018;4.282;2022-10-13T06:46:59;14.00;;;10.55;;
18905;SDS011;9585;51.018;4.282;2022-10-13T06:49:27;16.15;;;10.13;;
18905;SDS011;9585;51.018;4.282;2022-10-13T06:51:54;14.10;;;9.60;;
18905;SDS011;9585;51.018;4.282;2022-10-13T06:54:24;14.75;;;10.70;;
18905;SDS011;9585;51.018;4.282;2022-10-13T06:56:51;16.33;;;10.35;;
18905;SDS011;9585;51.018;4.282;2022-10-13T06:59:18;12.90;;;10.07;;
18905;SDS011;9585;51.018;4.282;2022-10-13T07:01:47;13.40;;;9.25;;
18905;SDS011;9585;51.018;4.282;2022-10-13T07:04:15;13.15;;;9.10;;
18905;SDS011;9585;51.018;4.282;2022-10-13T07:06:43;13.95;;;9.75;;
18905;SDS011;9585;51.018;4.282;2022-10-13T07:09:10;19.15;;;10.23;;
18905;SDS011;9585;51.018;4.282;2022-10-13T07:11:37;11.65;;;9.13;;
18905;SDS011;9585;51.018;4.282;2022-10-13T07:14:08;16.48;;;9.35;;
18905;SDS011;9585;51.018;4.282;2022-10-13T07:16:35;12.93;;;8.68;;
18905;SDS011;9585;51.018;4.282;2022-10-13T07:19:04;13.70;;;9.25;;
18905;SDS011;9585;51.018;4.282;2022-10-13T07:21:31;14.50;;;9.73;;
18905;SDS011;9585;51.018;4.282;2022-10-13T07:24:00;14.93;;;10.05;;
18905;SDS011;9585;51.018;4.282;2022-10-13T07:26:28;15.77;;;10.43;;
18905;SDS011;9585;51.018;4.282;2022-10-13T07:28:56;16.38;;;10.15;;
18905;SDS011;9585;51.018;4.282;2022-10-13T07:31:26;14.90;;;9.60;;
18905;SDS011;9585;51.018;4.282;2022-10-13T07:33:54;14.32;;;9.80;;
18905;SDS011;9585;51.018;4.282;2022-10-13T07:36:30;13.65;;;9.38;;
18905;SDS011;9585;51.018;4.282;2022-10-13T07:38:58;12.57;;;8.77;;
18905;SDS011;9585;51.018;4.282;2022-10-13T07:41:27;10.98;;;8.25;;
18905;SDS011;9585;51.018;4.282;2022-10-13T07:43:55;12.45;;;8.45;;
18905;SDS011;9585;51.018;4.282;2022-10-13T07:46:24;11.50;;;8.52;;
18905;SDS011;9585;51.018;4.282;2022-10-13T07:48:55;15.13;;;8.70;;
18905;SDS011;9585;51.018;4.282;2022-10-13T07:51:25;10.13;;;7.95;;
18905;SDS011;9585;51.018;4.282;2022-10-13T07:53:58;13.32;;;8.75;;
18905;SDS011;9585;51.018;4.282;2022-10-13T07:56:26;14.65;;;9.15;;
18905;SDS011;9585;51.018;4.282;2022-10-13T07:58:54;13.32;;;8.93;;
18905;SDS011;9585;51.018;4.282;2022-10-13T08:01:21;10.98;;;7.28;;
18905;SDS011;9585;51.018;4.282;2022-10-13T08:03:48;11.13;;;8.30;;
18905;SDS011;9585;51.018;4.282;2022-10-13T08:06:16;11.23;;;8.20;;
18905;SDS011;9585;51.018;4.282;2022-10-13T08:08:43;12.07;;;8.68;;
18905;SDS011;9585;51.018;4.282;2022-10-13T08:11:13;13.38;;;8.13;;
18905;SDS011;9585;51.018;4.282;2022-10-13T08:13:41;11.45;;;7.85;;
18905;SDS011;9585;51.018;4.282;2022-10-13T08:16:11;12.73;;;8.80;;
18905;SDS011;9585;51.018;4.282;2022-10-13T08:18:39;13.05;;;7.35;;
18905;SDS011;9585;51.018;4.282;2022-10-13T08:21:13;12.27;;;7.82;;
18905;SDS011;9585;51.018;4.282;2022-10-13T08:23:43;12.98;;;7.70;;
18905;SDS011;9585;51.018;4.282;2022-10-13T08:26:15;8.88;;;6.45;;
18905;SDS011;9585;51.018;4.282;2022-10-13T08:28:45;9.52;;;6.80;;
18905;SDS011;9585;51.018;4.282;2022-10-13T08:31:13;10.75;;;7.07;;
18905;SDS011;9585;51.018;4.282;2022-10-13T08:33:41;12.43;;;7.53;;
18905;SDS011;9585;51.018;4.282;2022-10-13T08:36:11;10.80;;;7.47;;
18905;SDS011;9585;51.018;4.282;2022-10-13T08:38:49;10.65;;;6.57;;
18905;SDS011;9585;51.018;4.282;2022-10-13T08:41:20;12.18;;;7.25;;
18905;SDS011;9585;51.018;4.282;2022-10-13T08:43:51;9.25;;;6.75;;
18905;SDS011;9585;51.018;4.282;2022-10-13T08:46:25;8.15;;;6.53;;
18905;SDS011;9585;51.018;4.282;2022-10-13T08:48:56;10.13;;;7.40;;
18905;SDS011;9585;51.018;4.282;2022-10-13T08:51:26;10.07;;;6.93;;
18905;SDS011;9585;51.018;4.282;2022-10-13T08:53:54;7.63;;;6.13;;
18905;SDS011;9585;51.018;4.282;2022-10-13T08:56:24;8.68;;;6.38;;
18905;SDS011;9585;51.018;4.282;2022-10-13T08:59:12;10.07;;;6.80;;
18905;SDS011;9585;51.018;4.282;2022-10-13T09:01:43;8.07;;;6.32;;
18905;SDS011;9585;51.018;4.282;2022-10-13T09:04:24;10.50;;;6.78;;
18905;SDS011;9585;51.018;4.282;2022-10-13T09:07:00;9.93;;;6.65;;
18905;SDS011;9585;51.018;4.282;2022-10-13T09:09:34;9.68;;;6.95;;
18905;SDS011;9585;51.018;4.282;2022-10-13T09:12:04;8.38;;;6.07;;
18905;SDS011;9585;51.018;4.282;2022-10-13T09:14:36;8.38;;;6.43;;
18905;SDS011;9585;51.018;4.282;2022-10-13T09:17:12;8.65;;;5.88;;
18905;SDS011;9585;51.018;4.282;2022-10-13T09:19:41;7.25;;;5.25;;
18905;SDS011;9585;51.018;4.282;2022-10-13T09:22:18;8.45;;;6.55;;
18905;SDS011;9585;51.018;4.282;2022-10-13T09:25:00;11.85;;;6.53;;
18905;SDS011;9585;51.018;4.282;2022-10-13T09:27:44;8.18;;;6.30;;
18905;SDS011;9585;51.018;4.282;2022-10-13T09:30:27;8.93;;;6.78;;
18905;SDS011;9585;51.018;4.282;2022-10-13T09:35:47;11.32;;;7.20;;
18905;SDS011;9585;51.018;4.282;2022-10-13T09:38:37;8.73;;;6.80;;
18905;SDS011;9585;51.018;4.282;2022-10-13T09:41:09;8.75;;;5.65;;
18905;SDS011;9585;51.018;4.282;2022-10-13T09:43:55;12.75;;;7.20;;
18905;SDS011;9585;51.018;4.282;2022-10-13T09:46:27;11.07;;;6.65;;
18905;SDS011;9585;51.018;4.282;2022-10-13T09:48:58;9.05;;;6.78;;
18905;SDS011;9585;51.018;4.282;2022-10-13T09:51:37;8.73;;;6.15;;
18905;SDS011;9585;51.018;4.282;2022-10-13T09:54:23;10.15;;;6.85;;
18905;SDS011;9585;51.018;4.282;2022-10-13T09:56:52;6.55;;;5.70;;
18905;SDS011;9585;51.018;4.282;2022-10-13T09:59:29;7.28;;;5.65;;
18905;SDS011;9585;51.018;4.282;2022-10-13T10:02:00;7.00;;;5.57;;
18905;SDS011;9585;51.018;4.282;2022-10-13T10:04:30;9.02;;;5.95;;
18905;SDS011;9585;51.018;4.282;2022-10-13T10:07:04;6.80;;;5.45;;
18905;SDS011;9585;51.018;4.282;2022-10-13T10:09:38;10.00;;;6.45;;
18905;SDS011;9585;51.018;4.282;2022-10-13T10:12:10;7.53;;;5.88;;
18905;SDS011;9585;51.018;4.282;2022-10-13T10:14:43;8.57;;;6.45;;
18905;SDS011;9585;51.018;4.282;2022-10-13T10:17:15;10.20;;;7.00;;
18905;SDS011;9585;51.018;4.282;2022-10-13T10:19:50;9.27;;;6.15;;
18905;SDS011;9585;51.018;4.282;2022-10-13T10:22:29;10.35;;;7.05;;
18905;SDS011;9585;51.018;4.282;2022-10-13T10:25:16;9.38;;;7.05;;
18905;SDS011;9585;51.018;4.282;2022-10-13T10:27:56;9.70;;;6.68;;
18905;SDS011;9585;51.018;4.282;2022-10-13T10:30:59;10.18;;;6.88;;
18905;SDS011;9585;51.018;4.282;2022-10-13T10:33:33;8.13;;;6.40;;
18905;SDS011;9585;51.018;4.282;2022-10-13T10:36:10;7.95;;;6.63;;
18905;SDS011;9585;51.018;4.282;2022-10-13T10:38:43;10.93;;;7.22;;
18905;SDS011;9585;51.018;4.282;2022-10-13T10:41:22;13.70;;;7.57;;
18905;SDS011;9585;51.018;4.282;2022-10-13T10:44:02;10.25;;;7.35;;
18905;SDS011;9585;51.018;4.282;2022-10-13T10:46:38;10.82;;;7.15;;
18905;SDS011;9585;51.018;4.282;2022-10-13T10:49:11;9.30;;;7.55;;
18905;SDS011;9585;51.018;4.282;2022-10-13T10:51:42;9.02;;;7.15;;
18905;SDS011;9585;51.018;4.282;2022-10-13T10:57:06;10.70;;;8.25;;
18905;SDS011;9585;51.018;4.282;2022-10-13T10:59:45;10.45;;;8.15;;
18905;SDS011;9585;51.018;4.282;2022-10-13T11:02:27;11.50;;;9.10;;
18905;SDS011;9585;51.018;4.282;2022-10-13T11:05:09;13.52;;;9.88;;
18905;SDS011;9585;51.018;4.282;2022-10-13T11:07:56;9.88;;;8.27;;
18905;SDS011;9585;51.018;4.282;2022-10-13T11:10:25;10.95;;;8.60;;
18905;SDS011;9585;51.018;4.282;2022-10-13T11:15:51;9.13;;;7.97;;
18905;SDS011;9585;51.018;4.282;2022-10-13T11:24:58;10.88;;;8.82;;
18905;SDS011;9585;51.018;4.282;2022-10-13T11:27:44;13.82;;;9.20;;
18905;SDS011;9585;51.018;4.282;2022-10-13T11:42:35;13.13;;;9.43;;
18905;SDS011;9585;51.018;4.282;2022-10-13T11:45:38;12.40;;;9.50;;
18905;SDS011;9585;51.018;4.282;2022-10-13T11:51:15;12.10;;;9.45;;
18905;SDS011;9585;51.018;4.282;2022-10-13T11:53:55;12.65;;;9.35;;
18905;SDS011;9585;51.018;4.282;2022-10-13T11:56:33;12.55;;;9.07;;
18905;SDS011;9585;51.018;4.282;2022-10-13T11:59:02;11.40;;;8.98;;
18905;SDS011;9585;51.018;4.282;2022-10-13T12:01:29;15.00;;;10.55;;
18905;SDS011;9585;51.018;4.282;2022-10-13T12:03:57;11.43;;;8.88;;
18905;SDS011;9585;51.018;4.282;2022-10-13T12:06:26;13.02;;;9.63;;
18905;SDS011;9585;51.018;4.282;2022-10-13T12:09:02;13.02;;;9.07;;
18905;SDS011;9585;51.018;4.282;2022-10-13T12:11:32;12.52;;;8.73;;
18905;SDS011;9585;51.018;4.282;2022-10-13T12:14:02;11.60;;;9.25;;
18905;SDS011;9585;51.018;4.282;2022-10-13T12:16:33;13.57;;;10.02;;
18905;SDS011;9585;51.018;4.282;2022-10-13T12:19:07;11.63;;;9.45;;
18905;SDS011;9585;51.018;4.282;2022-10-13T12:21:47;14.98;;;10.65;;
18905;SDS011;9585;51.018;4.282;2022-10-13T12:24:20;11.93;;;8.98;;
18905;SDS011;9585;51.018;4.282;2022-10-13T12:26:51;15.57;;;9.45;;
18905;SDS011;9585;51.018;4.282;2022-10-13T12:29:20;13.40;;;10.27;;
18905;SDS011;9585;51.018;4.282;2022-10-13T12:31:51;13.30;;;9.43;;
18905;SDS011;9585;51.018;4.282;2022-10-13T12:34:21;14.48;;;9.40;;
18905;SDS011;9585;51.018;4.282;2022-10-13T12:36:52;14.82;;;10.40;;
18905;SDS011;9585;51.018;4.282;2022-10-13T12:39:24;14.52;;;10.43;;
18905;SDS011;9585;51.018;4.282;2022-10-13T12:41:55;12.85;;;9.77;;
18905;SDS011;9585;51.018;4.282;2022-10-13T12:44:25;12.27;;;9.40;;
18905;SDS011;9585;51.018;4.282;2022-10-13T12:46:54;14.98;;;10.43;;
18905;SDS011;9585;51.018;4.282;2022-10-13T12:49:24;12.40;;;9.73;;
18905;SDS011;9585;51.018;4.282;2022-10-13T12:51:52;11.55;;;9.20;;
18905;SDS011;9585;51.018;4.282;2022-10-13T12:54:26;10.32;;;8.93;;
18905;SDS011;9585;51.018;4.282;2022-10-13T12:56:56;11.90;;;9.45;;
18905;SDS011;9585;51.018;4.282;2022-10-13T12:59:27;10.73;;;9.10;;
18905;SDS011;9585;51.018;4.282;2022-10-13T13:01:56;11.15;;;9.45;;
18905;SDS011;9585;51.018;4.282;2022-10-13T13:04:38;10.90;;;8.90;;
18905;SDS011;9585;51.018;4.282;2022-10-13T13:07:27;14.05;;;9.35;;
18905;SDS011;9585;51.018;4.282;2022-10-13T13:10:02;12.07;;;9.35;;
18905;SDS011;9585;51.018;4.282;2022-10-13T13:12:40;13.48;;;10.18;;
18905;SDS011;9585;51.018;4.282;2022-10-13T13:15:19;16.40;;;10.43;;
18905;SDS011;9585;51.018;4.282;2022-10-13T13:21:06;13.48;;;9.98;;
18905;SDS011;9585;51.018;4.282;2022-10-13T13:23:35;12.63;;;9.38;;
18905;SDS011;9585;51.018;4.282;2022-10-13T13:26:06;13.68;;;9.80;;
18905;SDS011;9585;51.018;4.282;2022-10-13T13:28:37;10.45;;;9.45;;
18905;SDS011;9585;51.018;4.282;2022-10-13T13:31:09;15.30;;;12.15;;
18905;SDS011;9585;51.018;4.282;2022-10-13T13:33:37;11.45;;;9.52;;
18905;SDS011;9585;51.018;4.282;2022-10-13T13:36:12;10.32;;;9.25;;
18905;SDS011;9585;51.018;4.282;2022-10-13T13:38:44;11.40;;;10.15;;
18905;SDS011;9585;51.018;4.282;2022-10-13T13:41:16;13.02;;;10.35;;
18905;SDS011;9585;51.018;4.282;2022-10-13T13:43:47;13.23;;;11.90;;
18905;SDS011;9585;51.018;4.282;2022-10-13T13:46:15;14.52;;;12.88;;
18905;SDS011;9585;51.018;4.282;2022-10-13T13:48:52;12.13;;;10.85;;
18905;SDS011;9585;51.018;4.282;2022-10-13T13:51:20;10.15;;;9.15;;
18905;SDS011;9585;51.018;4.282;2022-10-13T13:53:47;18.58;;;16.63;;
18905;SDS011;9585;51.018;4.282;2022-10-13T13:56:17;19.27;;;17.45;;
18905;SDS011;9585;51.018;4.282;2022-10-13T13:58:48;15.63;;;14.15;;
18905;SDS011;9585;51.018;4.282;2022-10-13T14:01:15;13.32;;;12.13;;
18905;SDS011;9585;51.018;4.282;2022-10-13T14:03:43;11.30;;;8.82;;
18905;SDS011;9585;51.018;4.282;2022-10-13T14:06:15;10.43;;;8.93;;
18905;SDS011;9585;51.018;4.282;2022-10-13T14:08:46;10.15;;;8.20;;
18905;SDS011;9585;51.018;4.282;2022-10-13T14:11:14;12.27;;;9.13;;
18905;SDS011;9585;51.018;4.282;2022-10-13T14:13:43;10.10;;;7.97;;
18905;SDS011;9585;51.018;4.282;2022-10-13T14:16:14;10.85;;;9.35;;
18905;SDS011;9585;51.018;4.282;2022-10-13T14:18:42;9.82;;;8.18;;
18905;SDS011;9585;51.018;4.282;2022-10-13T14:21:10;10.55;;;8.45;;
18905;SDS011;9585;51.018;4.282;2022-10-13T14:23:39;12.63;;;9.45;;
18905;SDS011;9585;51.018;4.282;2022-10-13T14:26:11;33.30;;;30.60;;
18905;SDS011;9585;51.018;4.282;2022-10-13T14:28:40;16.95;;;15.35;;
18905;SDS011;9585;51.018;4.282;2022-10-13T14:31:08;15.10;;;10.23;;
18905;SDS011;9585;51.018;4.282;2022-10-13T14:33:37;14.23;;;10.50;;
18905;SDS011;9585;51.018;4.282;2022-10-13T14:36:21;11.30;;;9.52;;
18905;SDS011;9585;51.018;4.282;2022-10-13T14:38:49;18.75;;;16.80;;
18905;SDS011;9585;51.018;4.282;2022-10-13T14:41:18;15.50;;;12.45;;
18905;SDS011;9585;51.018;4.282;2022-10-13T14:43:48;14.00;;;11.90;;
18905;SDS011;9585;51.018;4.282;2022-10-13T14:46:18;12.68;;;10.43;;
18905;SDS011;9585;51.018;4.282;2022-10-13T14:48:46;11.45;;;10.20;;
18905;SDS011;9585;51.018;4.282;2022-10-13T14:51:14;15.38;;;11.45;;
18905;SDS011;9585;51.018;4.282;2022-10-13T14:53:42;16.00;;;13.60;;
18905;SDS011;9585;51.018;4.282;2022-10-13T14:56:15;14.15;;;12.65;;
18905;SDS011;9585;51.018;4.282;2022-10-13T14:58:44;11.80;;;10.40;;
18905;SDS011;9585;51.018;4.282;2022-10-13T15:01:13;11.25;;;10.05;;
18905;SDS011;9585;51.018;4.282;2022-10-13T15:03:41;12.38;;;10.63;;
18905;SDS011;9585;51.018;4.282;2022-10-13T15:06:09;10.60;;;9.45;;
18905;SDS011;9585;51.018;4.282;2022-10-13T15:08:39;9.98;;;8.98;;
18905;SDS011;9585;51.018;4.282;2022-10-13T15:11:07;10.02;;;8.82;;
18905;SDS011;9585;51.018;4.282;2022-10-13T15:13:35;10.40;;;9.35;;
18905;SDS011;9585;51.018;4.282;2022-10-13T15:16:02;9.10;;;8.07;;
18905;SDS011;9585;51.018;4.282;2022-10-13T15:18:32;10.27;;;9.27;;
18905;SDS011;9585;51.018;4.282;2022-10-13T15:21:00;10.32;;;8.73;;
18905;SDS011;9585;51.018;4.282;2022-10-13T15:23:27;12.63;;;10.65;;
18905;SDS011;9585;51.018;4.282;2022-10-13T15:25:55;12.38;;;10.43;;
18905;SDS011;9585;51.018;4.282;2022-10-13T15:31:18;10.35;;;9.25;;
18905;SDS011;9585;51.018;4.282;2022-10-13T15:33:50;10.05;;;8.75;;
18905;SDS011;9585;51.018;4.282;2022-10-13T15:36:18;9.18;;;7.90;;
18905;SDS011;9585;51.018;4.282;2022-10-13T15:38:46;9.23;;;8.05;;
18905;SDS011;9585;51.018;4.282;2022-10-13T15:41:13;16.38;;;12.27;;
18905;SDS011;9585;51.018;4.282;2022-10-13T15:43:41;11.88;;;9.70;;
18905;SDS011;9585;51.018;4.282;2022-10-13T15:46:09;12.13;;;9.93;;